createdAt,value
2019-01-12T00:00:36.376Z,23.43
2019-01-12T00:03:03.051Z,23.43
2019-01-12T00:05:29.729Z,23.43
2019-01-12T00:07:56.423Z,23.42
2019-01-12T00:10:23.126Z,23.46
2019-01-12T00:12:49.806Z,23.45
2019-01-12T00:15:16.471Z,23.51
2019-01-12T00:17:43.149Z,23.48
2019-01-12T00:20:09.829Z,23.47
2019-01-12T00:22:36.498Z,23.51
2019-01-12T00:25:03.180Z,23.51
2019-01-12T00:27:29.846Z,23.52
2019-01-12T00:29:57.069Z,23.54
2019-01-12T00:32:23.765Z,23.58
2019-01-12T00:34:50.427Z,23.53
2019-01-12T00:37:17.091Z,23.56
2019-01-12T00:39:43.781Z,23.53
2019-01-12T00:42:10.453Z,23.41
2019-01-12T00:44:37.122Z,23.31
2019-01-12T00:47:03.788Z,23.38
2019-01-12T00:49:30.485Z,23.45
2019-01-12T00:51:57.159Z,23.37
2019-01-12T00:54:23.845Z,23.39
2019-01-12T00:56:50.530Z,23.43
2019-01-12T00:59:17.210Z,23.44
2019-01-12T01:01:43.875Z,23.47
2019-01-12T01:04:10.568Z,23.48
2019-01-12T01:06:37.347Z,23.49
2019-01-12T01:09:04.016Z,23.53
2019-01-12T01:11:30.682Z,23.48
2019-01-12T01:13:57.355Z,23.54
2019-01-12T01:16:24.046Z,23.54
2019-01-12T01:18:50.725Z,23.54
2019-01-12T01:21:17.400Z,23.58
2019-01-12T01:23:44.131Z,23.58
2019-01-12T01:26:10.816Z,23.49
2019-01-12T01:28:37.568Z,23.41
2019-01-12T01:31:04.240Z,23.45
2019-01-12T01:33:30.932Z,23.43
2019-01-12T01:35:57.605Z,23.34
2019-01-12T01:38:24.296Z,23.35
2019-01-12T01:40:50.963Z,23.41
2019-01-12T01:43:17.679Z,23.43
2019-01-12T01:45:44.467Z,23.48
2019-01-12T01:48:11.205Z,23.44
2019-01-12T01:50:37.881Z,23.45
2019-01-12T01:53:04.559Z,23.43
2019-01-12T01:55:31.237Z,23.49
2019-01-12T01:57:57.908Z,23.49
2019-01-12T02:00:24.576Z,23.48
2019-01-12T02:02:51.267Z,23.52
2019-01-12T02:05:17.977Z,23.52
2019-01-12T02:07:44.745Z,23.53
2019-01-12T02:10:11.434Z,23.48
2019-01-12T02:12:38.111Z,23.33
2019-01-12T02:15:04.780Z,23.31
2019-01-12T02:17:31.447Z,23.33
2019-01-12T02:19:58.113Z,23.35
2019-01-12T02:22:24.787Z,23.33
2019-01-12T02:24:51.460Z,23.39
2019-01-12T02:27:18.136Z,23.39
2019-01-12T02:29:44.872Z,23.43
2019-01-12T02:32:11.562Z,23.47
2019-01-12T02:34:38.229Z,23.42
2019-01-12T02:37:04.896Z,23.44
2019-01-12T02:39:31.582Z,23.48
2019-01-12T02:41:58.262Z,23.49
2019-01-12T02:44:24.944Z,23.45
2019-01-12T02:46:51.713Z,23.52
2019-01-12T02:49:18.380Z,23.53
2019-01-12T02:51:45.066Z,23.46
2019-01-12T02:54:11.727Z,23.44
2019-01-12T02:56:38.456Z,23.34
2019-01-12T02:59:05.232Z,23.28
2019-01-12T03:01:31.969Z,23.33
2019-01-12T03:03:58.644Z,23.33
2019-01-12T03:06:25.329Z,23.31
2019-01-12T03:08:52.073Z,23.33
2019-01-12T03:11:18.754Z,23.39
2019-01-12T03:13:45.446Z,23.34
2019-01-12T03:16:12.235Z,23.34
2019-01-12T03:18:38.956Z,23.44
2019-01-12T03:21:05.636Z,23.45
2019-01-12T03:23:32.414Z,23.40
2019-01-12T03:25:59.089Z,23.39
2019-01-12T03:28:25.783Z,23.33
2019-01-12T03:30:52.449Z,22.95
2019-01-12T03:33:19.165Z,22.74
2019-01-12T03:35:45.855Z,22.67
2019-01-12T03:38:12.517Z,22.79
2019-01-12T03:40:39.225Z,22.93
2019-01-12T03:43:05.869Z,23.00
2019-01-12T03:45:32.554Z,23.08
2019-01-12T03:47:59.241Z,23.11
2019-01-12T03:50:25.971Z,23.14
2019-01-12T03:52:52.689Z,23.14
2019-01-12T03:55:25.365Z,23.20
2019-01-12T03:57:46.101Z,23.21
2019-01-12T04:00:12.771Z,23.19
2019-01-12T04:02:39.445Z,23.25
2019-01-12T04:05:06.119Z,23.29
2019-01-12T04:07:32.802Z,23.31
2019-01-12T04:09:59.504Z,23.31
2019-01-12T04:12:26.180Z,23.26
2019-01-12T04:14:52.845Z,23.21
2019-01-12T04:17:19.526Z,23.13
2019-01-12T04:19:46.288Z,23.12
2019-01-12T04:22:12.959Z,23.13
2019-01-12T04:24:39.624Z,23.12
2019-01-12T04:27:06.287Z,23.16
2019-01-12T04:29:32.931Z,23.13
2019-01-12T04:31:59.569Z,23.18
2019-01-12T04:34:26.221Z,23.25
2019-01-12T04:36:52.859Z,23.31
2019-01-12T04:39:19.514Z,23.22
2019-01-12T04:41:46.248Z,23.26
2019-01-12T04:44:12.904Z,23.29
2019-01-12T04:46:39.560Z,23.30
2019-01-12T04:49:06.296Z,23.31
2019-01-12T04:51:32.938Z,23.28
2019-01-12T04:53:59.575Z,23.29
2019-01-12T04:56:26.221Z,23.22
2019-01-12T04:58:52.860Z,23.19
2019-01-12T05:01:19.567Z,23.08
2019-01-12T05:03:46.220Z,23.08
2019-01-12T05:06:12.862Z,23.12
2019-01-12T05:08:39.510Z,23.13
2019-01-12T05:11:09.474Z,23.13
2019-01-12T05:13:36.128Z,23.14
2019-01-12T05:16:02.762Z,23.19
2019-01-12T05:18:29.424Z,23.18
2019-01-12T05:20:56.068Z,23.21
2019-01-12T05:23:22.774Z,23.23
2019-01-12T05:25:49.505Z,23.28
2019-01-12T05:28:16.059Z,23.25
2019-01-12T05:30:42.712Z,23.28
2019-01-12T05:33:09.400Z,23.30
2019-01-12T05:35:36.068Z,23.29
2019-01-12T05:38:02.787Z,23.30
2019-01-12T05:40:29.429Z,23.27
2019-01-12T05:42:56.090Z,23.21
2019-01-12T05:45:22.729Z,23.05
2019-01-12T05:47:49.374Z,23.06
2019-01-12T05:50:16.012Z,23.13
2019-01-12T05:52:42.747Z,23.08
2019-01-12T05:55:09.381Z,23.09
2019-01-12T05:57:36.082Z,23.14
2019-01-12T06:00:02.725Z,23.14
2019-01-12T06:02:29.368Z,23.22
2019-01-12T06:04:56.008Z,23.23
2019-01-12T06:07:22.734Z,23.22
2019-01-12T06:09:49.388Z,23.20
2019-01-12T06:12:16.041Z,23.23
2019-01-12T06:14:42.743Z,23.24
2019-01-12T06:17:09.392Z,23.31
2019-01-12T06:19:36.025Z,23.28
2019-01-12T06:22:02.668Z,23.24
2019-01-12T06:24:29.365Z,23.23
2019-01-12T06:26:56.000Z,23.25
2019-01-12T06:29:22.673Z,23.10
2019-01-12T06:31:49.312Z,23.06
2019-01-12T06:34:15.957Z,23.06
2019-01-12T06:36:43.164Z,23.08
2019-01-12T06:39:09.814Z,23.11
2019-01-12T06:41:36.467Z,23.16
2019-01-12T06:44:03.248Z,23.14
2019-01-12T06:46:29.890Z,23.18
2019-01-12T06:48:56.583Z,23.20
2019-01-12T06:51:23.240Z,23.25
2019-01-12T06:53:49.872Z,23.28
2019-01-12T06:56:16.522Z,23.26
2019-01-12T06:58:43.213Z,23.28
2019-01-12T07:01:09.858Z,23.31
2019-01-12T07:03:36.509Z,23.35
2019-01-12T07:06:03.166Z,23.31
2019-01-12T07:08:29.806Z,23.35
2019-01-12T07:10:56.449Z,23.29
2019-01-12T07:13:23.077Z,23.21
2019-01-12T07:15:49.777Z,23.13
2019-01-12T07:18:16.519Z,23.20
2019-01-12T07:20:43.148Z,23.12
2019-01-12T07:23:09.798Z,23.16
2019-01-12T07:25:36.441Z,23.17
2019-01-12T07:28:03.147Z,23.19
2019-01-12T07:30:29.807Z,23.27
2019-01-12T07:32:56.502Z,23.27
2019-01-12T07:35:23.147Z,23.26
2019-01-12T07:37:49.800Z,23.31
2019-01-12T07:40:16.439Z,23.34
2019-01-12T07:42:43.137Z,23.33
2019-01-12T07:45:09.782Z,23.35
2019-01-12T07:47:36.427Z,23.38
2019-01-12T07:50:03.084Z,23.41
2019-01-12T07:52:29.795Z,23.34
2019-01-12T07:54:56.441Z,23.35
2019-01-12T07:57:23.074Z,23.25
2019-01-12T07:59:49.727Z,23.17
2019-01-12T08:02:16.421Z,23.25
2019-01-12T08:04:43.075Z,23.23
2019-01-12T08:07:09.736Z,23.24
2019-01-12T08:09:36.424Z,23.23
2019-01-12T08:12:03.066Z,23.28
2019-01-12T08:14:29.758Z,23.30
2019-01-12T08:16:56.409Z,23.34
2019-01-12T08:19:23.050Z,23.33
2019-01-12T08:21:49.828Z,23.34
2019-01-12T08:24:16.473Z,23.39
2019-01-12T08:26:43.120Z,23.40
2019-01-12T08:29:09.767Z,23.37
2019-01-12T08:31:36.423Z,23.40
2019-01-12T08:34:03.119Z,23.42
2019-01-12T08:36:30.182Z,23.38
2019-01-12T08:38:56.832Z,23.42
2019-01-12T08:41:23.529Z,23.37
2019-01-12T08:43:50.169Z,23.28
2019-01-12T08:46:16.846Z,23.32
2019-01-12T08:48:43.485Z,23.35
2019-01-12T08:51:10.145Z,23.31
2019-01-12T08:53:36.791Z,23.36
2019-01-12T08:56:03.483Z,23.45
2019-01-12T08:58:30.124Z,23.44
2019-01-12T09:00:56.823Z,23.53
2019-01-12T09:03:23.495Z,23.57
2019-01-12T09:05:50.132Z,23.64
2019-01-12T09:08:16.784Z,23.69
2019-01-12T09:10:43.460Z,23.70
2019-01-12T09:13:10.152Z,23.72
2019-01-12T09:15:36.800Z,23.76
2019-01-12T09:18:03.441Z,23.71
2019-01-12T09:20:30.092Z,23.73
2019-01-12T09:22:56.788Z,23.73
2019-01-12T09:25:23.425Z,23.69
2019-01-12T09:27:50.061Z,23.70
2019-01-12T09:30:16.717Z,23.71
2019-01-12T09:32:43.369Z,23.70
2019-01-12T09:35:10.021Z,23.68
2019-01-12T09:37:36.660Z,23.69
2019-01-12T09:40:03.352Z,23.66
2019-01-12T09:42:29.992Z,23.58
2019-01-12T09:44:56.650Z,23.54
2019-01-12T09:47:23.351Z,23.62
2019-01-12T09:49:49.993Z,23.56
2019-01-12T09:52:16.632Z,23.61
2019-01-12T09:54:44.960Z,23.61
2019-01-12T09:57:09.948Z,23.64
2019-01-12T09:59:36.655Z,23.68
2019-01-12T10:02:03.288Z,23.69
2019-01-12T10:04:29.926Z,23.74
2019-01-12T10:06:56.571Z,23.79
2019-01-12T10:09:23.224Z,23.81
2019-01-12T10:11:49.876Z,23.85
2019-01-12T10:14:16.576Z,23.87
2019-01-12T10:16:43.218Z,23.90
2019-01-12T10:19:09.861Z,23.98
2019-01-12T10:21:36.530Z,23.98
2019-01-12T10:24:03.198Z,24.00
2019-01-12T10:26:29.897Z,24.01
2019-01-12T10:28:56.584Z,24.05
2019-01-12T10:31:23.229Z,24.02
2019-01-12T10:33:49.930Z,24.03
2019-01-12T10:36:17.880Z,24.05
2019-01-12T10:38:43.262Z,24.01
2019-01-12T10:41:09.955Z,23.98
2019-01-12T10:43:36.609Z,23.96
2019-01-12T10:46:03.304Z,23.98
2019-01-12T10:48:29.957Z,23.91
2019-01-12T10:50:56.661Z,23.85
2019-01-12T10:53:23.270Z,23.77
2019-01-12T10:55:49.965Z,23.82
2019-01-12T10:58:16.616Z,23.84
2019-01-12T11:00:43.320Z,23.83
2019-01-12T11:03:10.018Z,23.83
2019-01-12T11:05:36.660Z,23.86
2019-01-12T11:08:03.293Z,23.93
2019-01-12T11:10:29.941Z,23.91
2019-01-12T11:12:56.591Z,23.98
2019-01-12T11:15:23.239Z,23.95
2019-01-12T11:17:49.882Z,23.96
2019-01-12T11:20:16.544Z,24.03
2019-01-12T11:22:43.194Z,24.10
2019-01-12T11:25:09.839Z,24.10
2019-01-12T11:27:36.473Z,24.18
2019-01-12T11:30:05.205Z,24.19
2019-01-12T11:32:29.765Z,24.21
2019-01-12T11:34:56.539Z,24.20
2019-01-12T11:37:23.182Z,24.22
2019-01-12T11:39:49.949Z,24.20
2019-01-12T11:42:18.043Z,24.16
2019-01-12T11:44:43.298Z,24.20
2019-01-12T11:47:09.958Z,24.14
2019-01-12T11:49:36.650Z,24.20
2019-01-12T11:52:03.285Z,24.03
2019-01-12T11:54:29.935Z,23.99
2019-01-12T11:56:56.622Z,23.68
2019-01-12T11:59:23.272Z,23.52
2019-01-12T12:01:49.911Z,23.65
2019-01-12T12:04:16.612Z,23.80
2019-01-12T12:06:43.257Z,23.83
2019-01-12T12:09:09.954Z,23.93
2019-01-12T12:11:36.628Z,23.92
2019-01-12T12:14:03.244Z,23.96
2019-01-12T12:16:29.953Z,24.03
2019-01-12T12:18:56.659Z,24.07
2019-01-12T12:21:23.443Z,24.07
2019-01-12T12:23:50.124Z,24.07
2019-01-12T12:26:16.753Z,24.10
2019-01-12T12:28:43.394Z,24.11
2019-01-12T12:31:10.045Z,24.09
2019-01-12T12:33:36.689Z,24.11
2019-01-12T12:36:03.342Z,24.08
2019-01-12T12:38:29.987Z,24.16
2019-01-12T12:40:56.673Z,24.10
2019-01-12T12:43:23.317Z,24.17
2019-01-12T12:45:49.961Z,24.10
2019-01-12T12:48:16.601Z,24.11
2019-01-12T12:50:43.276Z,24.11
2019-01-12T12:53:09.969Z,24.15
2019-01-12T12:55:36.655Z,24.09
2019-01-12T12:58:03.322Z,24.12
2019-01-12T13:00:29.971Z,24.11
2019-01-12T13:02:56.617Z,24.15
2019-01-12T13:05:23.257Z,24.09
2019-01-12T13:07:49.926Z,24.15
2019-01-12T13:10:16.569Z,24.09
2019-01-12T13:12:43.302Z,24.11
2019-01-12T13:15:10.765Z,24.11
2019-01-12T13:17:36.593Z,24.11
2019-01-12T13:20:03.237Z,24.10
2019-01-12T13:22:29.899Z,24.13
2019-01-12T13:24:56.599Z,24.11
2019-01-12T13:27:23.240Z,24.11
2019-01-12T13:29:49.876Z,24.12
2019-01-12T13:32:16.525Z,24.08
2019-01-12T13:34:43.190Z,24.10
2019-01-12T13:37:09.830Z,24.10
2019-01-12T13:39:36.469Z,24.08
2019-01-12T13:42:03.126Z,24.10
2019-01-12T13:44:29.764Z,24.07
2019-01-12T13:46:57.581Z,24.08
2019-01-12T13:49:24.244Z,24.07
2019-01-12T13:51:50.889Z,24.07
2019-01-12T13:54:17.546Z,23.92
2019-01-12T13:56:44.204Z,23.77
2019-01-12T13:59:10.845Z,23.78
2019-01-12T14:01:37.530Z,23.77
2019-01-12T14:04:04.222Z,23.77
2019-01-12T14:06:30.869Z,23.79
2019-01-12T14:08:57.523Z,23.82
2019-01-12T14:11:24.162Z,23.87
2019-01-12T14:13:50.859Z,23.85
2019-01-12T14:16:17.499Z,23.88
2019-01-12T14:18:44.138Z,23.90
2019-01-12T14:21:10.798Z,23.87
2019-01-12T14:23:37.489Z,23.90
2019-01-12T14:26:04.131Z,23.89
2019-01-12T14:28:30.774Z,23.91
2019-01-12T14:30:57.429Z,23.88
2019-01-12T14:33:24.066Z,23.91
2019-01-12T14:35:50.712Z,23.92
2019-01-12T14:38:17.404Z,23.91
2019-01-12T14:40:44.045Z,23.91
2019-01-12T14:43:10.692Z,23.91
2019-01-12T14:45:37.382Z,23.96
2019-01-12T14:48:04.028Z,23.89
2019-01-12T14:50:30.729Z,23.92
2019-01-12T14:52:57.369Z,23.84
2019-01-12T14:55:24.022Z,23.72
2019-01-12T14:57:50.714Z,23.68
2019-01-12T15:00:17.356Z,23.70
2019-01-12T15:02:44.031Z,23.66
2019-01-12T15:05:10.711Z,23.63
2019-01-12T15:07:37.386Z,23.67
2019-01-12T15:10:04.026Z,23.69
2019-01-12T15:12:30.733Z,23.69
2019-01-12T15:14:57.445Z,23.70
2019-01-12T15:17:24.093Z,23.66
2019-01-12T15:19:50.784Z,23.67
2019-01-12T15:22:17.421Z,23.65
2019-01-12T15:24:44.064Z,23.65
2019-01-12T15:27:10.706Z,23.67
2019-01-12T15:29:37.368Z,23.71
2019-01-12T15:32:04.025Z,23.70
2019-01-12T15:34:30.687Z,23.72
2019-01-12T15:36:57.338Z,23.66
2019-01-12T15:39:24.083Z,23.54
2019-01-12T15:41:50.727Z,23.43
2019-01-12T15:44:17.412Z,23.46
2019-01-12T15:46:44.053Z,23.47
2019-01-12T15:49:10.729Z,23.45
2019-01-12T15:51:37.378Z,23.51
2019-01-12T15:54:04.017Z,23.50
2019-01-12T15:56:30.708Z,23.50
2019-01-12T15:58:59.330Z,23.42
2019-01-12T16:01:24.087Z,23.48
2019-01-12T16:03:50.733Z,23.51
2019-01-12T16:06:17.421Z,23.54
2019-01-12T16:08:44.085Z,23.57
2019-01-12T16:11:10.782Z,23.52
2019-01-12T16:13:37.429Z,23.52
2019-01-12T16:16:04.079Z,23.54
2019-01-12T16:18:30.770Z,23.57
2019-01-12T16:20:57.459Z,23.54
2019-01-12T16:23:24.094Z,23.42
2019-01-12T16:25:50.737Z,23.31
2019-01-12T16:28:23.237Z,23.33
2019-01-12T16:30:44.082Z,23.36
2019-01-12T16:33:10.736Z,23.30
2019-01-12T16:35:37.375Z,23.37
2019-01-12T16:38:04.026Z,23.38
2019-01-12T16:40:30.723Z,23.37
2019-01-12T16:42:57.399Z,23.41
2019-01-12T16:45:24.037Z,23.41
2019-01-12T16:47:50.692Z,23.44
2019-01-12T16:50:17.327Z,23.43
2019-01-12T16:52:44.101Z,23.39
2019-01-12T16:55:10.793Z,23.45
2019-01-12T16:57:37.429Z,23.45
2019-01-12T17:00:04.091Z,23.45
2019-01-12T17:02:30.729Z,23.41
2019-01-12T17:04:57.421Z,23.46
2019-01-12T17:07:24.057Z,23.39
2019-01-12T17:09:50.753Z,23.16
2019-01-12T17:12:17.405Z,23.25
2019-01-12T17:14:44.128Z,23.26
2019-01-12T17:17:10.778Z,23.17
2019-01-12T17:19:37.424Z,23.27
2019-01-12T17:22:04.072Z,23.28
2019-01-12T17:24:30.718Z,23.32
2019-01-12T17:26:57.413Z,23.35
2019-01-12T17:29:24.097Z,23.34
2019-01-12T17:31:50.744Z,23.33
2019-01-12T17:34:17.385Z,23.36
2019-01-12T17:36:44.019Z,23.34
2019-01-12T17:39:10.726Z,23.37
2019-01-12T17:41:37.360Z,23.42
2019-01-12T17:44:04.026Z,23.42
2019-01-12T17:46:30.704Z,23.42
2019-01-12T17:48:57.431Z,23.37
2019-01-12T17:51:24.120Z,23.32
2019-01-12T17:53:50.808Z,23.25
2019-01-12T17:56:17.447Z,23.22
2019-01-12T17:58:44.616Z,23.26
2019-01-12T18:01:10.874Z,23.23
2019-01-12T18:03:37.569Z,23.22
2019-01-12T18:06:04.217Z,23.28
2019-01-12T18:08:30.852Z,23.31
2019-01-12T18:10:57.513Z,23.33
2019-01-12T18:13:24.203Z,23.33
2019-01-12T18:15:50.842Z,23.35
2019-01-12T18:18:17.523Z,23.35
2019-01-12T18:20:44.178Z,23.35
2019-01-12T18:23:10.821Z,23.38
2019-01-12T18:25:37.565Z,23.38
2019-01-12T18:28:04.257Z,23.40
2019-01-12T18:30:30.901Z,23.41
2019-01-12T18:32:57.612Z,23.43
2019-01-12T18:35:24.250Z,23.43
2019-01-12T18:37:50.949Z,23.45
2019-01-12T18:40:17.653Z,23.37
2019-01-12T18:42:44.304Z,23.28
2019-01-12T18:45:10.951Z,23.25
2019-01-12T18:47:37.606Z,23.20
2019-01-12T18:50:04.251Z,23.25
2019-01-12T18:52:30.900Z,23.24
2019-01-12T18:54:57.549Z,23.30
2019-01-12T18:57:24.292Z,23.30
2019-01-12T18:59:50.939Z,23.32
2019-01-12T19:02:17.588Z,23.34
2019-01-12T19:04:44.246Z,23.35
2019-01-12T19:07:10.895Z,23.40
2019-01-12T19:09:38.435Z,23.35
2019-01-12T19:12:04.191Z,23.39
2019-01-12T19:14:30.841Z,23.36
2019-01-12T19:16:57.482Z,23.40
2019-01-12T19:19:24.125Z,23.42
2019-01-12T19:21:50.764Z,23.38
2019-01-12T19:24:17.406Z,23.40
2019-01-12T19:26:44.061Z,23.33
2019-01-12T19:29:10.710Z,23.16
2019-01-12T19:31:37.359Z,23.23
2019-01-12T19:34:04.012Z,23.24
2019-01-12T19:36:30.662Z,23.28
2019-01-12T19:38:57.301Z,23.22
2019-01-12T19:41:23.953Z,23.32
2019-01-12T19:43:50.594Z,23.32
2019-01-12T19:46:17.244Z,23.32
2019-01-12T19:48:43.902Z,23.37
2019-01-12T19:51:10.546Z,23.36
2019-01-12T19:53:37.203Z,23.34
2019-01-12T19:56:03.849Z,23.40
2019-01-12T19:58:30.499Z,23.39
2019-01-12T20:00:57.197Z,23.39
2019-01-12T20:03:23.803Z,23.42
2019-01-12T20:05:50.452Z,23.40
2019-01-12T20:08:17.103Z,23.39
2019-01-12T20:10:43.743Z,23.39
2019-01-12T20:13:10.393Z,23.19
2019-01-12T20:15:37.045Z,23.22
2019-01-12T20:18:03.687Z,23.28
2019-01-12T20:20:30.341Z,23.26
2019-01-12T20:22:56.980Z,23.23
2019-01-12T20:25:23.646Z,23.09
2019-01-12T20:27:50.285Z,23.29
2019-01-12T20:30:16.946Z,23.35
2019-01-12T20:32:43.595Z,23.34
2019-01-12T20:35:10.237Z,23.31
2019-01-12T20:37:37.007Z,23.37
2019-01-12T20:40:03.651Z,23.33
2019-01-12T20:42:30.291Z,23.29
2019-01-12T20:44:56.947Z,23.19
2019-01-12T20:47:23.590Z,22.92
2019-01-12T20:49:50.297Z,22.68
2019-01-12T20:52:16.942Z,22.60
2019-01-12T20:54:43.583Z,22.77
2019-01-12T20:57:10.234Z,22.81
2019-01-12T20:59:36.878Z,22.95
2019-01-12T21:02:03.523Z,22.97
2019-01-12T21:04:30.163Z,23.01
2019-01-12T21:06:56.863Z,23.03
2019-01-12T21:09:23.505Z,23.04
2019-01-12T21:11:50.157Z,23.12
2019-01-12T21:14:16.800Z,23.16
2019-01-12T21:16:43.449Z,23.10
2019-01-12T21:19:10.104Z,23.13
2019-01-12T21:21:36.742Z,23.16
2019-01-12T21:24:03.398Z,23.23
2019-01-12T21:26:30.038Z,23.19
2019-01-12T21:28:56.686Z,23.17
2019-01-12T21:31:23.334Z,23.07
2019-01-12T21:33:49.961Z,22.98
2019-01-12T21:36:16.622Z,23.04
2019-01-12T21:38:43.358Z,23.08
2019-01-12T21:41:10.000Z,22.99
2019-01-12T21:43:36.647Z,23.08
2019-01-12T21:46:03.302Z,23.08
2019-01-12T21:48:29.953Z,23.10
2019-01-12T21:50:56.599Z,23.09
2019-01-12T21:53:23.250Z,23.16
2019-01-12T21:55:49.895Z,23.17
2019-01-12T21:58:17.874Z,23.22
2019-01-12T22:00:44.561Z,23.22
2019-01-12T22:03:11.212Z,23.21
2019-01-12T22:05:37.857Z,23.27
2019-01-12T22:08:04.502Z,23.26
2019-01-12T22:10:31.144Z,23.23
2019-01-12T22:12:57.789Z,23.25
2019-01-12T22:15:24.447Z,23.26
2019-01-12T22:17:51.101Z,23.23
2019-01-12T22:20:17.751Z,23.24
2019-01-12T22:22:44.411Z,23.25
2019-01-12T22:25:11.062Z,23.22
2019-01-12T22:27:37.785Z,23.20
2019-01-12T22:30:04.371Z,23.12
2019-01-12T22:32:31.032Z,22.98
2019-01-12T22:34:57.671Z,23.03
2019-01-12T22:37:24.334Z,23.03
2019-01-12T22:39:50.972Z,23.04
2019-01-12T22:42:17.616Z,23.05
2019-01-12T22:44:44.280Z,23.01
2019-01-12T22:47:10.915Z,23.09
2019-01-12T22:49:38.909Z,23.09
2019-01-12T22:52:04.238Z,23.09
2019-01-12T22:54:30.903Z,23.12
2019-01-12T22:56:57.557Z,23.13
2019-01-12T22:59:24.208Z,23.13
2019-01-12T23:01:50.861Z,23.16
2019-01-12T23:04:18.910Z,23.17
2019-01-12T23:06:44.149Z,23.17
2019-01-12T23:09:11.160Z,23.18
2019-01-12T23:11:37.436Z,23.18
2019-01-12T23:14:04.098Z,23.11
2019-01-12T23:16:30.790Z,23.03
2019-01-12T23:18:57.426Z,23.02
2019-01-12T23:21:24.061Z,23.01
2019-01-12T23:23:50.762Z,23.04
2019-01-12T23:26:17.561Z,23.05
2019-01-12T23:28:44.212Z,23.05
2019-01-12T23:31:10.879Z,23.04
2019-01-12T23:33:37.498Z,23.07
2019-01-12T23:36:04.139Z,23.09
2019-01-12T23:38:30.784Z,23.11
2019-01-12T23:40:57.428Z,23.16
2019-01-12T23:43:24.122Z,23.15
2019-01-12T23:45:50.712Z,23.14
2019-01-12T23:48:17.402Z,23.14
2019-01-12T23:50:44.044Z,23.18
2019-01-12T23:53:10.726Z,23.16
2019-01-12T23:55:37.364Z,23.18
2019-01-12T23:58:04.015Z,23.22
